createdAt,value
2018-05-16T00:02:23.275Z,17.40
2018-05-16T00:04:50.841Z,17.40
2018-05-16T00:07:18.406Z,17.40
2018-05-16T00:09:45.952Z,17.40
2018-05-16T00:12:13.561Z,17.40
2018-05-16T00:14:41.136Z,17.40
2018-05-16T00:17:08.804Z,17.40
2018-05-16T00:19:36.353Z,17.40
2018-05-16T00:22:03.924Z,17.40
2018-05-16T00:24:31.538Z,17.40
2018-05-16T00:26:59.880Z,17.40
2018-05-16T00:29:27.447Z,17.40
2018-05-16T00:31:55.141Z,17.40
2018-05-16T00:34:23.479Z,17.40
2018-05-16T00:36:51.061Z,17.40
2018-05-16T00:39:18.652Z,17.50
2018-05-16T00:41:46.252Z,17.50
2018-05-16T00:44:13.827Z,17.50
2018-05-16T00:46:41.429Z,17.60
2018-05-16T00:49:09.762Z,17.60
2018-05-16T00:51:37.341Z,17.60
2018-05-16T00:54:05.167Z,17.70
2018-05-16T00:56:32.736Z,17.70
2018-05-16T00:59:00.408Z,17.70
2018-05-16T01:01:27.994Z,17.60
2018-05-16T01:03:55.553Z,17.40
2018-05-16T01:06:23.132Z,17.30
2018-05-16T01:08:51.448Z,17.10
2018-05-16T01:11:19.028Z,17.10
2018-05-16T01:13:46.595Z,17.00
2018-05-16T01:16:14.171Z,16.90
2018-05-16T01:18:41.722Z,16.90
2018-05-16T01:21:09.281Z,16.80
2018-05-16T01:23:36.856Z,16.70
2018-05-16T01:26:04.428Z,16.70
2018-05-16T01:28:32.763Z,16.70
2018-05-16T01:31:00.468Z,16.70
2018-05-16T01:33:28.792Z,16.70
2018-05-16T01:35:56.348Z,16.70
2018-05-16T01:38:24.108Z,16.70
2018-05-16T01:40:51.739Z,16.60
2018-05-16T01:43:20.077Z,16.50
2018-05-16T01:45:47.658Z,16.50
2018-05-16T01:48:15.228Z,16.50
2018-05-16T01:50:43.567Z,16.50
2018-05-16T01:53:11.118Z,16.50
2018-05-16T01:55:38.691Z,16.30
2018-05-16T01:58:06.252Z,16.20
2018-05-16T02:00:33.827Z,16.10
2018-05-16T02:03:01.389Z,16.00
2018-05-16T02:05:28.949Z,15.80
2018-05-16T02:07:56.501Z,15.70
2018-05-16T02:10:24.156Z,15.60
2018-05-16T02:12:51.719Z,15.40
2018-05-16T02:15:19.347Z,15.30
2018-05-16T02:17:46.935Z,15.20
2018-05-16T02:20:14.483Z,15.10
2018-05-16T02:22:42.064Z,15.10
2018-05-16T02:25:09.624Z,15.00
2018-05-16T02:27:37.316Z,15.00
2018-05-16T02:30:05.658Z,14.90
2018-05-16T02:32:33.233Z,14.90
2018-05-16T02:35:00.811Z,14.90
2018-05-16T02:37:28.454Z,14.90
2018-05-16T02:39:56.715Z,14.90
2018-05-16T02:42:24.284Z,14.90
2018-05-16T02:44:51.867Z,14.90
2018-05-16T02:47:20.193Z,14.90
2018-05-16T02:49:47.848Z,14.90
2018-05-16T02:52:15.412Z,14.90
2018-05-16T02:54:42.964Z,14.90
2018-05-16T02:57:10.607Z,14.90
2018-05-16T02:59:38.944Z,14.90
2018-05-16T03:02:06.490Z,14.90
2018-05-16T03:04:34.063Z,14.90
2018-05-16T03:07:01.620Z,14.90
2018-05-16T03:09:29.185Z,14.90
2018-05-16T03:11:56.747Z,14.80
2018-05-16T03:14:24.341Z,14.90
2018-05-16T03:16:52.133Z,14.90
2018-05-16T03:19:19.706Z,14.90
2018-05-16T03:21:47.255Z,14.80
2018-05-16T03:24:14.842Z,14.80
2018-05-16T03:26:42.398Z,14.80
2018-05-16T03:29:09.959Z,14.70
2018-05-16T03:31:37.516Z,14.70
2018-05-16T03:34:05.137Z,14.60
2018-05-16T03:36:32.703Z,14.50
2018-05-16T03:39:00.316Z,14.40
2018-05-16T03:41:27.895Z,14.40
2018-05-16T03:43:56.233Z,14.30
2018-05-16T03:46:23.885Z,14.30
2018-05-16T03:48:51.440Z,14.30
2018-05-16T03:51:19.097Z,14.30
2018-05-16T03:53:46.654Z,14.30
2018-05-16T03:56:14.248Z,14.30
2018-05-16T03:58:53.559Z,14.30
2018-05-16T04:01:32.947Z,14.20
2018-05-16T04:04:12.295Z,14.20
2018-05-16T04:06:40.664Z,14.30
2018-05-16T04:09:08.285Z,14.30
2018-05-16T04:11:37.566Z,14.40
2018-05-16T04:14:05.132Z,14.30
2018-05-16T04:16:32.696Z,14.40
2018-05-16T04:19:00.435Z,14.40
2018-05-16T04:21:28.010Z,14.40
2018-05-16T04:23:55.575Z,14.40
2018-05-16T04:26:23.144Z,14.50
2018-05-16T04:28:50.851Z,14.50
2018-05-16T04:31:18.447Z,14.50
2018-05-16T04:33:46.019Z,14.40
2018-05-16T04:36:13.567Z,14.50
2018-05-16T04:38:41.128Z,14.50
2018-05-16T04:41:08.788Z,14.60
2018-05-16T04:43:36.361Z,14.60
2018-05-16T04:46:03.929Z,14.60
2018-05-16T04:48:31.495Z,14.70
2018-05-16T04:50:59.242Z,14.70
2018-05-16T04:53:26.796Z,14.80
2018-05-16T04:55:54.371Z,14.80
2018-05-16T04:58:22.063Z,14.80
2018-05-16T05:00:49.739Z,14.90
2018-05-16T05:03:17.992Z,14.90
2018-05-16T05:05:45.575Z,14.80
2018-05-16T05:08:13.139Z,14.80
2018-05-16T05:10:41.548Z,15.00
2018-05-16T05:13:09.125Z,15.00
2018-05-16T05:15:36.703Z,15.10
2018-05-16T05:18:04.255Z,15.20
2018-05-16T05:20:31.834Z,15.30
2018-05-16T05:22:59.388Z,15.40
2018-05-16T05:25:26.992Z,15.30
2018-05-16T05:27:55.320Z,15.50
2018-05-16T05:30:22.920Z,15.40
2018-05-16T05:32:50.450Z,15.70
2018-05-16T05:35:18.016Z,16.00
2018-05-16T05:37:45.564Z,16.70
2018-05-16T05:40:13.143Z,17.30
2018-05-16T05:42:40.691Z,18.00
2018-05-16T05:45:08.268Z,18.70
2018-05-16T05:47:35.886Z,19.00
2018-05-16T05:50:03.594Z,19.30
2018-05-16T05:52:31.131Z,19.30
2018-05-16T05:54:58.715Z,19.80
2018-05-16T05:57:26.344Z,19.90
2018-05-16T05:59:53.915Z,20.10
2018-05-16T06:02:21.493Z,20.60
2018-05-16T06:04:49.219Z,21.10
2018-05-16T06:07:16.776Z,21.40
2018-05-16T06:09:44.352Z,21.90
2018-05-16T06:12:12.111Z,22.40
2018-05-16T06:14:39.775Z,22.60
2018-05-16T06:17:07.485Z,22.80
2018-05-16T06:19:35.269Z,23.10
2018-05-16T06:22:02.769Z,23.20
2018-05-16T06:24:30.343Z,22.80
2018-05-16T06:26:58.074Z,22.90
2018-05-16T06:29:25.541Z,23.00
2018-05-16T06:31:53.101Z,23.10
2018-05-16T06:34:20.701Z,23.30
2018-05-16T06:36:49.035Z,22.60
2018-05-16T06:39:16.654Z,22.60
2018-05-16T06:41:44.158Z,22.60
2018-05-16T06:44:11.739Z,22.50
2018-05-16T06:46:39.288Z,22.30
2018-05-16T06:49:06.968Z,21.80
2018-05-16T06:51:34.513Z,20.70
2018-05-16T06:54:02.094Z,20.30
2018-05-16T06:56:29.655Z,20.00
2018-05-16T06:58:57.220Z,19.70
2018-05-16T07:01:24.845Z,19.20
2018-05-16T07:03:52.395Z,18.90
2018-05-16T07:06:19.951Z,18.70
2018-05-16T07:08:47.520Z,18.50
2018-05-16T07:11:15.070Z,18.10
2018-05-16T07:13:42.647Z,18.30
2018-05-16T07:16:10.201Z,18.30
2018-05-16T07:18:37.793Z,18.40
2018-05-16T07:21:05.331Z,18.60
2018-05-16T07:23:32.892Z,18.50
2018-05-16T07:26:00.481Z,18.40
2018-05-16T07:28:28.042Z,18.30
2018-05-16T07:30:55.637Z,18.30
2018-05-16T07:33:23.231Z,18.40
2018-05-16T07:35:50.808Z,18.30
2018-05-16T07:38:18.392Z,18.60
2018-05-16T07:40:47.532Z,18.90
2018-05-16T07:43:15.102Z,18.90
2018-05-16T07:45:42.645Z,18.50
2018-05-16T07:48:10.228Z,18.70
2018-05-16T07:50:37.780Z,18.60
2018-05-16T07:53:05.360Z,18.70
2018-05-16T07:55:32.943Z,19.10
2018-05-16T07:58:00.629Z,19.10
2018-05-16T08:00:28.100Z,19.10
2018-05-16T08:02:55.700Z,19.30
2018-05-16T08:05:23.251Z,19.30
2018-05-16T08:07:50.819Z,19.10
2018-05-16T08:10:18.392Z,19.10
2018-05-16T08:12:45.943Z,19.10
2018-05-16T08:15:13.492Z,19.30
2018-05-16T08:17:41.068Z,19.40
2018-05-16T08:20:08.608Z,19.50
2018-05-16T08:22:36.200Z,19.00
2018-05-16T08:25:03.752Z,18.80
2018-05-16T08:27:31.379Z,18.80
2018-05-16T08:29:58.940Z,19.10
2018-05-16T08:32:26.695Z,19.20
2018-05-16T08:34:54.234Z,19.20
2018-05-16T08:37:21.962Z,19.30
2018-05-16T08:39:51.067Z,19.40
2018-05-16T08:42:18.655Z,19.40
2018-05-16T08:44:46.237Z,19.50
2018-05-16T08:47:13.806Z,19.60
2018-05-16T08:49:41.372Z,19.80
2018-05-16T08:52:09.031Z,20.20
2018-05-16T08:54:36.583Z,20.70
2018-05-16T08:57:04.284Z,21.00
2018-05-16T08:59:31.861Z,21.50
2018-05-16T09:01:59.407Z,21.90
2018-05-16T09:04:27.008Z,22.00
2018-05-16T09:06:54.564Z,21.90
2018-05-16T09:09:22.137Z,21.80
2018-05-16T09:11:49.736Z,21.30
2018-05-16T09:14:17.295Z,21.30
2018-05-16T09:16:44.848Z,21.50
2018-05-16T09:19:12.415Z,21.30
2018-05-16T09:21:39.980Z,21.20
2018-05-16T09:24:07.601Z,21.30
2018-05-16T09:26:35.258Z,21.60
2018-05-16T09:29:02.812Z,21.50
2018-05-16T09:31:30.388Z,21.20
2018-05-16T09:33:57.986Z,21.30
2018-05-16T09:36:25.563Z,21.40
2018-05-16T09:38:53.454Z,21.40
2018-05-16T09:41:21.409Z,21.40
2018-05-16T09:43:49.740Z,21.50
2018-05-16T09:46:17.375Z,21.50
2018-05-16T09:48:44.941Z,21.10
2018-05-16T09:51:12.493Z,21.00
2018-05-16T09:53:40.052Z,20.80
2018-05-16T09:56:07.633Z,21.10
2018-05-16T09:58:35.187Z,21.30
2018-05-16T10:01:02.881Z,21.50
2018-05-16T10:03:30.505Z,21.30
2018-05-16T10:05:58.167Z,21.30
2018-05-16T10:08:25.740Z,21.50
2018-05-16T10:10:53.367Z,21.60
2018-05-16T10:13:21.837Z,21.60
2018-05-16T10:15:50.192Z,21.60
2018-05-16T10:18:17.951Z,21.60
2018-05-16T10:20:45.525Z,21.70
2018-05-16T10:23:13.110Z,21.50
2018-05-16T10:25:41.437Z,21.00
2018-05-16T10:28:09.051Z,20.90
2018-05-16T10:30:36.657Z,21.00
2018-05-16T10:33:04.316Z,20.60
2018-05-16T10:35:32.042Z,20.30
2018-05-16T10:38:00.373Z,20.40
2018-05-16T10:40:27.940Z,20.30
2018-05-16T10:42:55.542Z,20.70
2018-05-16T10:45:23.156Z,21.00
2018-05-16T10:47:50.888Z,20.90
2018-05-16T10:50:18.444Z,20.70
2018-05-16T10:52:46.016Z,20.50
2018-05-16T10:55:13.593Z,20.30
2018-05-16T10:57:41.159Z,20.40
2018-05-16T11:00:08.786Z,20.60
2018-05-16T11:02:36.551Z,20.70
2018-05-16T11:05:04.133Z,21.00
2018-05-16T11:07:31.867Z,21.30
2018-05-16T11:09:59.432Z,21.40
2018-05-16T11:12:26.992Z,21.20
2018-05-16T11:14:54.552Z,21.40
2018-05-16T11:17:22.103Z,21.40
2018-05-16T11:19:49.689Z,21.70
2018-05-16T11:22:17.338Z,21.80
2018-05-16T11:24:45.003Z,21.80
2018-05-16T11:27:12.541Z,22.00
2018-05-16T11:29:40.103Z,21.70
2018-05-16T11:32:07.782Z,21.80
2018-05-16T11:34:35.382Z,21.90
2018-05-16T11:37:02.939Z,21.50
2018-05-16T11:39:30.604Z,21.50
2018-05-16T11:41:58.163Z,21.90
2018-05-16T11:44:25.724Z,21.80
2018-05-16T11:46:53.295Z,21.10
2018-05-16T11:49:20.880Z,21.10
2018-05-16T11:51:49.375Z,21.70
2018-05-16T11:54:16.919Z,21.70
2018-05-16T11:56:45.270Z,21.60
2018-05-16T11:59:12.829Z,21.60
2018-05-16T12:01:40.548Z,21.60
2018-05-16T12:04:08.112Z,21.60
2018-05-16T12:06:35.672Z,22.10
2018-05-16T12:09:03.257Z,22.30
2018-05-16T12:11:30.820Z,22.30
2018-05-16T12:13:58.374Z,22.00
2018-05-16T12:16:25.929Z,22.50
2018-05-16T12:18:53.548Z,22.90
2018-05-16T12:21:21.887Z,22.90
2018-05-16T12:23:49.439Z,22.90
2018-05-16T12:26:16.992Z,22.80
2018-05-16T12:28:44.571Z,22.30
2018-05-16T12:31:12.140Z,22.20
2018-05-16T12:33:39.727Z,22.30
2018-05-16T12:36:08.032Z,21.80
2018-05-16T12:38:35.594Z,21.70
2018-05-16T12:41:03.248Z,22.10
2018-05-16T12:43:30.815Z,22.10
2018-05-16T12:45:58.394Z,22.10
2018-05-16T12:48:25.959Z,21.60
2018-05-16T12:50:53.515Z,21.50
2018-05-16T12:53:21.132Z,21.30
2018-05-16T12:55:49.607Z,21.20
2018-05-16T12:58:17.304Z,21.10
2018-05-16T13:00:44.880Z,21.30
2018-05-16T13:03:12.452Z,21.00
2018-05-16T13:05:40.075Z,20.50
2018-05-16T13:08:07.707Z,20.20
2018-05-16T13:10:36.072Z,19.40
2018-05-16T13:13:03.686Z,19.40
2018-05-16T13:15:31.339Z,19.20
2018-05-16T13:17:58.915Z,18.90
2018-05-16T13:20:26.471Z,18.80
2018-05-16T13:22:54.096Z,18.80
2018-05-16T13:25:22.437Z,18.90
2018-05-16T13:27:49.993Z,18.90
2018-05-16T13:30:17.572Z,19.00
2018-05-16T13:32:45.132Z,19.00
2018-05-16T13:35:12.859Z,19.10
2018-05-16T13:37:40.412Z,18.90
2018-05-16T13:40:07.967Z,18.80
2018-05-16T13:42:35.640Z,18.80
2018-05-16T13:45:03.230Z,18.80
2018-05-16T13:47:31.126Z,18.70
2018-05-16T13:49:59.532Z,18.80
2018-05-16T13:52:27.101Z,18.70
2018-05-16T13:54:54.761Z,18.70
2018-05-16T13:57:22.440Z,18.60
2018-05-16T13:59:50.000Z,18.70
2018-05-16T14:02:17.578Z,18.70
2018-05-16T14:04:45.140Z,18.80
2018-05-16T14:07:12.965Z,18.70
2018-05-16T14:09:40.533Z,18.80
2018-05-16T14:12:08.117Z,18.90
2018-05-16T14:14:35.655Z,19.00
2018-05-16T14:17:03.364Z,19.10
2018-05-16T14:19:31.075Z,19.10
2018-05-16T14:21:58.655Z,19.30
2018-05-16T14:24:26.236Z,19.60
2018-05-16T14:26:53.813Z,19.70
2018-05-16T14:29:21.404Z,19.90
2018-05-16T14:31:48.992Z,20.00
2018-05-16T14:34:16.652Z,19.70
2018-05-16T14:36:44.205Z,19.80
2018-05-16T14:39:11.851Z,20.00
2018-05-16T14:41:39.421Z,20.10
2018-05-16T14:44:07.020Z,20.20
2018-05-16T14:46:34.618Z,20.50
2018-05-16T14:49:02.998Z,20.70
2018-05-16T14:51:31.327Z,20.90
2018-05-16T14:53:58.948Z,20.80
2018-05-16T14:56:26.646Z,21.20
2018-05-16T14:58:54.251Z,21.30
2018-05-16T15:01:22.678Z,21.10
2018-05-16T15:03:50.331Z,21.10
2018-05-16T15:06:17.911Z,21.40
2018-05-16T15:08:45.497Z,21.50
2018-05-16T15:11:13.072Z,21.60
2018-05-16T15:13:41.396Z,21.70
2018-05-16T15:16:08.994Z,21.70
2018-05-16T15:18:36.580Z,21.70
2018-05-16T15:21:04.932Z,21.80
2018-05-16T15:23:32.620Z,21.80
2018-05-16T15:26:00.955Z,21.90
2018-05-16T15:28:28.534Z,21.90
2018-05-16T15:30:56.108Z,22.10
2018-05-16T15:33:24.472Z,22.30
2018-05-16T15:35:52.040Z,22.30
2018-05-16T15:38:19.728Z,22.50
2018-05-16T15:40:47.212Z,22.50
2018-05-16T15:43:14.824Z,22.40
2018-05-16T15:45:42.383Z,21.90
2018-05-16T15:48:10.718Z,21.40
2018-05-16T15:50:38.399Z,21.40
2018-05-16T15:53:05.956Z,21.00
2018-05-16T15:55:33.563Z,21.00
2018-05-16T15:58:01.910Z,20.60
2018-05-16T16:00:29.452Z,20.60
2018-05-16T16:02:57.193Z,20.60
2018-05-16T16:05:24.781Z,20.60
2018-05-16T16:07:52.563Z,20.60
2018-05-16T16:10:20.386Z,20.60
2018-05-16T16:12:47.960Z,20.50
2018-05-16T16:15:15.518Z,20.40
2018-05-16T16:17:43.194Z,20.30
2018-05-16T16:20:10.760Z,20.30
2018-05-16T16:22:38.394Z,20.20
2018-05-16T16:25:05.971Z,20.20
2018-05-16T16:27:33.609Z,20.10
2018-05-16T16:30:01.164Z,20.10
2018-05-16T16:32:28.738Z,20.20
2018-05-16T16:34:56.316Z,20.10
2018-05-16T16:37:24.299Z,19.90
2018-05-16T16:39:51.875Z,19.70
2018-05-16T16:42:19.533Z,19.60
2018-05-16T16:44:47.384Z,19.50
2018-05-16T16:47:14.867Z,19.30
2018-05-16T16:49:42.436Z,19.20
2018-05-16T16:52:12.596Z,18.80
2018-05-16T16:54:40.247Z,18.80
2018-05-16T16:57:07.869Z,18.70
2018-05-16T16:59:35.377Z,18.50
2018-05-16T17:02:02.932Z,18.40
2018-05-16T17:04:30.541Z,18.20
2018-05-16T17:06:58.090Z,18.30
2018-05-16T17:09:25.694Z,18.20
2018-05-16T17:11:53.300Z,18.10
2018-05-16T17:14:20.879Z,18.00
2018-05-16T17:16:48.464Z,17.90
2018-05-16T17:19:16.779Z,17.60
2018-05-16T17:21:44.379Z,17.60
2018-05-16T17:24:11.970Z,17.40
2018-05-16T17:26:39.556Z,17.20
2018-05-16T17:29:07.099Z,17.00
2018-05-16T17:31:34.847Z,16.80
2018-05-16T17:34:03.165Z,16.20
2018-05-16T17:36:30.743Z,16.20
2018-05-16T17:38:58.301Z,15.80
2018-05-16T17:41:25.869Z,15.40
2018-05-16T17:43:53.443Z,15.10
2018-05-16T17:46:20.999Z,14.80
2018-05-16T17:48:48.569Z,14.70
2018-05-16T17:51:16.172Z,14.70
2018-05-16T17:53:43.826Z,14.60
2018-05-16T17:56:11.531Z,14.60
2018-05-16T17:58:39.085Z,14.50
2018-05-16T18:01:06.673Z,14.50
2018-05-16T18:03:34.260Z,14.40
2018-05-16T18:06:01.805Z,14.40
2018-05-16T18:08:30.158Z,14.50
2018-05-16T18:10:57.709Z,14.50
2018-05-16T18:13:55.859Z,14.60
2018-05-16T18:16:35.411Z,14.60
2018-05-16T18:19:03.006Z,14.60
2018-05-16T18:21:30.592Z,14.60
2018-05-16T18:23:58.948Z,14.60
2018-05-16T18:26:26.548Z,14.60
2018-05-16T18:28:54.083Z,14.70
2018-05-16T18:31:22.620Z,14.70
2018-05-16T18:33:50.210Z,14.70
2018-05-16T18:36:18.570Z,14.70
2018-05-16T18:38:46.983Z,14.70
2018-05-16T18:41:15.307Z,14.60
2018-05-16T18:43:42.985Z,14.60
2018-05-16T18:46:10.581Z,14.60
2018-05-16T18:48:38.218Z,14.80
2018-05-16T18:51:05.776Z,14.80
2018-05-16T18:53:33.356Z,14.90
2018-05-16T18:56:01.093Z,14.80
2018-05-16T18:58:28.933Z,14.80
2018-05-16T19:00:56.593Z,14.80
2018-05-16T19:03:24.268Z,14.80
2018-05-16T19:05:51.864Z,14.80
2018-05-16T19:08:19.586Z,14.80
2018-05-16T19:10:47.140Z,14.90
2018-05-16T19:13:14.728Z,14.80
2018-05-16T19:15:42.297Z,14.90
2018-05-16T19:18:09.879Z,14.90
2018-05-16T19:20:37.569Z,14.90
2018-05-16T19:23:05.152Z,14.90
2018-05-16T19:25:32.728Z,14.90
2018-05-16T19:28:00.323Z,14.90
2018-05-16T19:30:27.918Z,14.90
2018-05-16T19:32:56.456Z,14.90
2018-05-16T19:35:25.539Z,14.90
2018-05-16T19:37:53.128Z,14.90
2018-05-16T19:40:21.479Z,15.00
2018-05-16T19:42:49.067Z,15.00
2018-05-16T19:45:16.641Z,15.00
2018-05-16T19:47:44.976Z,14.90
2018-05-16T19:50:12.552Z,14.90
2018-05-16T19:52:40.158Z,14.90
2018-05-16T19:55:07.743Z,14.90
2018-05-16T19:57:35.445Z,14.90
2018-05-16T20:00:03.017Z,14.90
2018-05-16T20:02:31.376Z,15.00
2018-05-16T20:04:58.949Z,15.00
2018-05-16T20:07:27.305Z,15.00
2018-05-16T20:09:54.887Z,14.90
2018-05-16T20:12:23.228Z,14.90
2018-05-16T20:14:50.884Z,14.90
2018-05-16T20:17:18.391Z,14.90
2018-05-16T20:19:46.741Z,14.90
2018-05-16T20:22:15.841Z,14.80
2018-05-16T20:24:43.504Z,14.80
2018-05-16T20:27:11.056Z,14.90
2018-05-16T20:29:38.629Z,14.90
2018-05-16T20:32:06.192Z,14.80
2018-05-16T20:34:33.800Z,14.80
2018-05-16T20:37:01.484Z,14.90
2018-05-16T20:39:29.063Z,14.90
2018-05-16T20:41:56.636Z,14.90
2018-05-16T20:44:24.223Z,14.90
2018-05-16T20:46:52.547Z,14.90
2018-05-16T20:49:20.133Z,14.80
2018-05-16T20:51:47.725Z,15.30
2018-05-16T20:54:16.139Z,14.80
2018-05-16T20:56:43.725Z,14.70
2018-05-16T20:59:11.287Z,14.80
2018-05-16T21:01:38.888Z,14.70
2018-05-16T21:04:06.467Z,14.70
2018-05-16T21:06:34.112Z,14.70
2018-05-16T21:09:01.709Z,14.60
2018-05-16T21:11:29.335Z,14.70
2018-05-16T21:13:56.919Z,14.60
2018-05-16T21:16:24.532Z,14.60
2018-05-16T21:18:53.087Z,14.70
2018-05-16T21:21:20.692Z,14.70
2018-05-16T21:23:49.032Z,14.70
2018-05-16T21:26:16.593Z,14.70
2018-05-16T21:28:44.254Z,14.70
2018-05-16T21:31:12.528Z,14.60
2018-05-16T21:33:40.235Z,14.60
2018-05-16T21:36:07.831Z,14.60
2018-05-16T21:38:35.440Z,14.60
2018-05-16T21:41:03.111Z,14.70
2018-05-16T21:43:31.487Z,14.60
2018-05-16T21:45:59.820Z,14.60
2018-05-16T21:48:27.374Z,14.60
2018-05-16T21:50:55.127Z,14.60
2018-05-16T21:53:22.707Z,14.50
2018-05-16T21:55:50.303Z,14.40
2018-05-16T21:58:17.912Z,14.40
2018-05-16T22:00:45.516Z,14.40
2018-05-16T22:03:13.863Z,14.20
2018-05-16T22:05:41.450Z,14.20
2018-05-16T22:08:09.046Z,14.20
2018-05-16T22:10:37.495Z,14.20
2018-05-16T22:13:04.973Z,14.10
2018-05-16T22:15:33.312Z,14.10
2018-05-16T22:18:00.888Z,14.10
2018-05-16T22:20:28.463Z,14.00
2018-05-16T22:22:56.812Z,13.90
2018-05-16T22:25:24.397Z,13.90
2018-05-16T22:27:51.994Z,13.90
2018-05-16T22:30:19.112Z,13.90
2018-05-16T22:32:52.971Z,13.80
2018-05-16T22:35:26.215Z,13.80
2018-05-16T22:38:00.208Z,13.80
2018-05-16T22:40:33.564Z,13.80
2018-05-16T22:43:00.629Z,13.80
2018-05-16T22:45:43.816Z,13.80
2018-05-16T22:48:11.375Z,13.60
2018-05-16T22:50:38.944Z,13.60
2018-05-16T22:53:06.535Z,13.50
2018-05-16T22:55:34.136Z,13.40
2018-05-16T22:58:02.479Z,13.40
2018-05-16T23:00:30.795Z,13.40
2018-05-16T23:02:59.144Z,13.20
2018-05-16T23:05:26.705Z,13.20
2018-05-16T23:07:54.277Z,13.20
2018-05-16T23:10:21.835Z,13.10
2018-05-16T23:12:49.420Z,13.10
2018-05-16T23:15:17.867Z,13.00
2018-05-16T23:17:45.459Z,13.10
2018-05-16T23:20:13.004Z,13.00
2018-05-16T23:22:40.569Z,13.00
2018-05-16T23:25:08.133Z,13.00
2018-05-16T23:27:36.452Z,13.00
2018-05-16T23:30:04.036Z,12.90
2018-05-16T23:32:31.620Z,12.90
2018-05-16T23:34:59.315Z,12.90
2018-05-16T23:37:26.884Z,12.90
2018-05-16T23:39:54.539Z,12.90
2018-05-16T23:42:22.097Z,12.90
2018-05-16T23:44:49.650Z,12.80
2018-05-16T23:47:17.240Z,12.80
2018-05-16T23:49:44.812Z,12.80
2018-05-16T23:52:12.442Z,12.70
2018-05-16T23:54:40.775Z,12.70
2018-05-16T23:57:08.360Z,12.70
2018-05-16T23:59:36.793Z,12.80
